Latest Coastal Weather Observations for Cape Otway

IDT60701

Issued at 10:03 am EST Wednesday 28 September 2016 (issued every 10 minutes, with the page automatically refreshed every 10 minutes)

About coastal observations | Map of coastal stations | Coastal observations for TAS | Marine services | Other Formats
Station Details ID: 090015 Name: CAPE OTWAY LIGHTHOUSE Lat: -38.86 Lon: 143.51 Height: 82.0 m
Data from the previous 72 hours. | See also: Recent months at Cape Otway
Date/Time
EST
Temp
°C
Wind Pressure Rain since
9am
mm
Weather Cloud Vis
km
Sea
Height
m
Swell
Dir  Spd
kts
Gust
kts
hPa Trend Height
m
Period
s
Dir
28/10:00am 15.0 N 10 13 1009.6 - 0.0 - - - - - - -
28/09:30am 14.0 N 9 15 1010.1 - 0.0 - - - - - - -
28/09:00am 12.9 N 11 16 1010.6 - 0.4 - - - - - - -
28/08:30am 13.1 N 9 13 1010.6 - 0.4 - - - - - - -
28/08:00am 11.7 N 7 10 1010.9 - 0.4 - - - - - - -
28/07:30am 11.4 NNW 7 11 1011.2 - 0.4 - - - - - - -
28/07:00am 10.5 NNW 8 11 1011.1 - 0.4 - - - - - - -
28/06:30am 9.8 NNW 8 11 1010.9 - 0.4 - - - - - - -
28/06:00am 10.0 NNW 8 11 1011.0 - 0.4 - - - - - - -
28/05:30am 10.7 NW 8 13 1010.9 - 0.4 - - - - - - -
28/05:00am 10.2 NNW 8 11 1010.9 - 0.4 - - - - - - -
28/04:30am 10.2 NW 9 13 1010.8 - 0.4 - - - - - - -
28/04:00am 10.5 NW 8 12 1010.9 - 0.4 - - - - - - -
28/03:30am 10.6 NW 11 17 1010.8 - 0.4 - - - - - - -
28/03:00am 11.4 NW 13 20 1010.9 - 0.4 - - - - - - -
28/02:30am 11.4 NW 11 17 1010.7 - 0.4 - - - - - - -
28/02:00am 11.5 NW 11 16 1010.8 - 0.4 - - - - - - -
28/01:30am 11.3 NW 11 16 1011.1 - 0.4 - - - - - - -
28/01:00am 10.7 NNW 9 13 1011.1 - 0.4 - - - - - - -
28/12:30am 11.0 NW 10 16 1011.2 - 0.4 - - - - - - -
28/12:00am 11.1 NW 10 15 1011.4 - 0.4 - - - - - - -
 
Date/Time
EST
Temp
°C
Wind Pressure Rain since
9am
mm
Weather Cloud Vis
km
Sea
Height
m
Swell
Dir  Spd
kts
Gust
kts
hPa Trend Height
m
Period
s
Dir
27/11:30pm 11.0 NNW 9 12 1011.3 - 0.4 - - - - - - -
27/11:00pm 11.2 NNW 8 13 1011.5 - 0.4 - - - - - - -
27/10:30pm 10.4 N 7 11 1011.6 - 0.4 - - - - - - -
27/10:00pm 10.2 N 7 9 1011.7 - 0.4 - - - - - - -
27/09:30pm 11.0 N 8 11 1011.7 - 0.4 - - - - - - -
27/09:00pm 10.8 N 8 11 1012.0 - 0.4 - - - - - - -
27/08:30pm 10.4 NNW 8 9 1012.1 - 0.4 - - - - - - -
27/08:00pm 10.0 NNW 7 9 1012.0 - 0.4 - - - - - - -
27/07:30pm 10.3 NNW 7 8 1012.0 - 0.4 - - - - - - -
27/07:00pm 11.8 WNW 8 14 1011.9 - 0.4 - - - - - - -
27/06:30pm 12.1 WNW 11 15 1011.9 - 0.4 - - - - - - -
27/06:00pm 12.2 WNW 11 15 1011.9 - 0.4 - - - - - - -
27/05:30pm 12.6 W 12 19 1011.8 - 0.4 - - - - - - -
27/05:00pm 13.2 WNW 13 18 1011.6 - 0.4 - - - - - - -
27/04:30pm 12.5 WNW 14 20 1011.5 - 0.4 - - - - - - -
27/04:00pm 12.9 W 12 19 1011.4 - 0.4 - - - - - - -
27/03:30pm 13.4 W 13 20 1011.3 - 0.4 - - - - - - -
27/03:00pm 13.5 W 15 22 1011.3 - 0.4 - - - - - - -
27/02:30pm 13.0 W 17 23 1011.2 - 0.4 - - - - - - -
27/02:04pm 13.2 W 16 26 1011.2 - 0.4 - - - - - - -
27/02:00pm 13.3 W 17 26 1011.2 - 0.4 - - - - - - -
27/01:30pm 12.3 W 16 22 1011.5 - 0.4 - - - - - - -
27/01:00pm 12.3 W 17 23 1011.5 - 0.4 - - - - - - -
27/12:30pm 12.2 W 17 25 1011.5 - 0.4 - - - - - - -
27/12:00pm 12.3 W 19 27 1011.5 - 0.4 - - - - - - -
27/11:30am 11.8 W 17 25 1011.2 - 0.4 - - - - - - -
27/11:00am 11.5 WSW 16 23 1011.1 - 0.2 - - - - - - -
27/10:30am 11.1 WSW 14 20 1011.1 - 0.2 - - - - - - -
27/10:00am 11.3 WSW 15 22 1010.8 - 0.0 - - - - - - -
27/09:30am 11.2 WNW 13 19 1010.6 - 0.0 - - - - - - -
27/09:00am 11.8 WNW 12 17 1010.2 - 5.4 - - - - - - -
27/08:30am 10.8 NNW 10 15 1010.0 - 5.4 - - - - - - -
27/08:00am 9.2 NNW 10 16 1009.8 - 5.4 - - - - - - -
27/07:30am 8.8 NNW 10 14 1009.6 - 5.4 - - - - - - -
27/07:00am 7.9 NNW 11 15 1009.3 - 5.4 - - - - - - -
27/06:30am 7.7 NNW 13 17 1009.0 - 5.4 - - - - - - -
27/06:00am 7.3 NW 10 14 1008.6 - 5.4 - - - - - - -
27/05:30am 7.2 NNW 10 13 1008.2 - 5.4 - - - - - - -
27/05:00am 6.9 NNW 10 14 1008.1 - 5.4 - - - - - - -
27/04:30am 7.0 NNW 12 16 1008.1 - 5.4 - - - - - - -
27/04:00am 6.9 NNW 12 16 1007.9 - 5.4 - - - - - - -
27/03:30am 6.2 NNW 11 13 1008.1 - 5.4 - - - - - - -
27/03:00am 6.6 NNW 11 13 1008.1 - 5.4 - - - - - - -
27/02:30am 8.0 NW 10 13 1008.0 - 5.4 - - - - - - -
27/02:00am 7.5 NW 9 13 1008.3 - 5.4 - - - - - - -
27/01:30am 7.1 NNW 11 14 1008.4 - 5.0 - - - - - - -
27/01:00am 7.8 NW 10 16 1008.4 - 5.0 - - - - - - -
27/12:30am 8.6 WNW 13 20 1008.3 - 5.0 - - - - - - -
27/12:00am 7.3 NW 10 15 1008.4 - 5.0 - - - - - - -
 
Date/Time
EST
Temp
°C
Wind Pressure Rain since
9am
mm
Weather Cloud Vis
km
Sea
Height
m
Swell
Dir  Spd
kts
Gust
kts
hPa Trend Height
m
Period
s
Dir
26/11:30pm 7.2 NNW 10 13 1008.8 - 5.0 - - - - - - -
26/11:00pm 7.3 NNW 9 13 1008.8 - 5.0 - - - - - - -
26/10:30pm 7.6 NNW 10 15 1009.1 - 5.0 - - - - - - -
26/10:00pm 7.6 NNW 8 11 1009.2 - 5.0 - - - - - - -
26/09:30pm 7.3 NNW 10 12 1009.2 - 5.0 - - - - - - -
26/09:00pm 7.4 NNW 9 12 1009.3 - 5.0 - - - - - - -
26/08:30pm 7.4 NNW 10 13 1008.8 - 5.0 - - - - - - -
26/08:00pm 7.4 NNW 11 17 1008.9 - 5.0 - - - - - - -
26/07:30pm 7.3 NNW 8 12 1008.3 - 5.0 - - - - - - -
26/07:00pm 7.3 NW 11 17 1009.1 - 4.4 - - - - - - -
26/06:30pm 8.3 NW 13 21 1009.5 - 3.4 - - - - - - -
26/06:05pm 8.8 W 16 26 1009.2 - 3.0 - - - - - - -
26/06:00pm 8.8 W 18 26 1009.3 - 2.8 - - - - - - -
26/05:49pm 9.0 WSW 16 34 1008.9 - 2.4 - - - - - - -
26/05:44pm 8.1 SW 20 42 1008.7 - 1.6 - - - - - - -
26/05:38pm 8.8 W 32 42 1007.7 - 1.0 - - - - - - -
26/05:35pm 9.7 WNW 20 35 1007.8 - 0.4 - - - - - - -
26/05:34pm 10.4 WNW 18 26 1007.9 - 0.0 - - - - - - -
26/05:30pm 11.9 E 8 12 1007.3 - 0.0 - - - - - - -
26/05:00pm 12.3 E 7 10 1007.5 - 0.0 - - - - - - -
26/04:30pm 12.3 E 7 11 1007.4 - 0.0 - - - - - - -
26/04:00pm 12.3 SE 7 13 1007.6 - 0.0 - - - - - - -
26/03:30pm 12.3 ESE 9 13 1007.9 - 0.0 - - - - - - -
26/03:00pm 12.5 E 9 12 1008.3 - 0.0 - - - - - - -
26/02:30pm 12.6 ENE 8 12 1008.4 - 0.0 - - - - - - -
26/02:00pm 13.6 E 7 11 1008.6 - 0.0 - - - - - - -
26/01:30pm 14.0 WNW 8 12 1009.0 - 0.0 - - - - - - -
26/01:00pm 14.5 W 9 15 1009.3 - 0.0 - - - - - - -
26/12:30pm 15.4 WNW 9 14 1009.6 - 0.0 - - - - - - -
26/12:00pm 14.0 W 8 12 1010.1 - 0.0 - - - - - - -
26/11:30am 13.7 W 8 11 1010.4 - 0.0 - - - - - - -
26/11:00am 13.4 WNW 9 12 1010.8 - 0.0 - - - - - - -
26/10:30am 13.7 W 9 13 1010.9 - 0.0 - - - - - - -
26/10:00am 13.1 WNW 10 13 1011.2 - 0.0 - - - - - - -
26/09:30am 12.6 WNW 10 15 1011.4 - 0.0 - - - - - - -
26/09:00am 12.0 NW 9 13 1011.7 - 0.4 - - - - - - -
26/08:30am 11.3 NW 9 12 1011.6 - 0.4 - - - - - - -
26/08:00am 10.6 NNW 9 13 1011.5 - 0.4 - - - - - - -
26/07:30am 9.2 NNW 10 13 1011.7 - 0.4 - - - - - - -
26/07:00am 8.1 NNW 9 12 1011.9 - 0.4 - - - - - - -
26/06:30am 7.5 N 9 13 1011.9 - 0.4 - - - - - - -
26/06:00am 7.6 N 9 12 1011.9 - 0.4 - - - - - - -
26/05:30am 7.9 N 10 13 1011.6 - 0.4 - - - - - - -
26/05:00am 8.0 N 10 13 1011.5 - 0.4 - - - - - - -
26/04:30am 8.0 N 10 14 1011.5 - 0.4 - - - - - - -
26/04:00am 7.8 N 8 11 1011.6 - 0.4 - - - - - - -
26/03:30am 7.7 N 9 11 1011.8 - 0.4 - - - - - - -
26/03:00am 7.9 N 9 12 1012.0 - 0.4 - - - - - - -
26/02:30am 8.1 N 9 12 1012.1 - 0.4 - - - - - - -
26/02:00am 8.2 N 8 10 1012.4 - 0.4 - - - - - - -
26/01:30am 8.5 N 8 10 1012.7 - 0.4 - - - - - - -
26/01:00am 8.4 N 8 10 1012.9 - 0.4 - - - - - - -
26/12:30am 8.1 N 9 11 1013.1 - 0.4 - - - - - - -
26/12:00am 7.8 N 8 11 1013.2 - 0.4 - - - - - - -
 
Date/Time
EST
Temp
°C
Wind Pressure Rain since
9am
mm
Weather Cloud Vis
km
Sea
Height
m
Swell
Dir  Spd
kts
Gust
kts
hPa Trend Height
m
Period
s
Dir
25/11:30pm 7.7 N 9 11 1013.2 - 0.4 - - - - - - -
25/11:00pm 7.8 N 8 10 1013.3 - 0.4 - - - - - - -
25/10:30pm 7.8 N 8 10 1013.6 - 0.4 - - - - - - -
25/10:00pm 7.7 NNW 8 9 1013.7 - 0.4 - - - - - - -
25/09:30pm 7.7 NNW 8 9 1013.7 - 0.4 - - - - - - -
25/09:00pm 7.8 NNW 7 9 1013.8 - 0.4 - - - - - - -
25/08:30pm 8.6 NNW 7 9 1013.6 - 0.4 - - - - - - -
25/08:00pm 10.3 WNW 7 10 1013.4 - 0.4 - - - - - - -
25/07:30pm 10.7 W 8 13 1013.3 - 0.4 - - - - - - -
25/07:00pm 10.6 W 9 14 1013.0 - 0.4 - - - - - - -
25/06:30pm 10.8 W 10 14 1012.6 - 0.4 - - - - - - -
25/06:00pm 11.2 W 10 13 1012.3 - 0.4 - - - - - - -
25/05:30pm 11.5 W 11 14 1012.1 - 0.4 - - - - - - -
25/05:00pm 12.1 W 12 16 1011.9 - 0.4 - - - - - - -
25/04:30pm 12.2 W 12 16 1011.7 - 0.4 - - - - - - -
25/04:00pm 11.8 W 12 16 1011.7 - 0.4 - - - - - - -
25/03:30pm 12.2 W 13 17 1011.6 - 0.4 - - - - - - -
25/03:00pm 12.7 W 13 18 1011.4 - 0.4 - - - - - - -
25/02:30pm 12.6 W 14 18 1011.4 - 0.4 - - - - - - -
25/02:00pm 12.8 W 15 20 1011.4 - 0.4 - - - - - - -
25/01:30pm 12.5 W 15 23 1011.4 - 0.4 - - - - - - -
25/01:00pm 12.5 WSW 15 23 1011.5 - 0.4 - - - - - - -
25/12:30pm 12.6 WSW 15 22 1011.6 - 0.4 - - - - - - -
25/12:00pm 12.1 WSW 19 25 1011.6 - 0.4 - - - - - - -
25/11:30am 12.2 W 15 22 1011.4 - 0.4 - - - - - - -
25/11:00am 11.9 W 18 24 1011.2 - 0.4 - - - - - - -
25/10:30am 11.2 WSW 17 25 1011.0 - 0.4 - - - - - - -
25/10:03am 10.9 W 16 27 1010.9 - 0.0 - - - - - - -

Other Formats:

Comma delimited format used in spreadsheet applications
http://www.bom.gov.au/fwo/IDT60701/IDT60701.94842.axf

JavaScript Object Notation format (JSON) in row-major order
http://www.bom.gov.au/fwo/IDT60701/IDT60701.94842.json